Time;durP1;ratioP1;P1;durP2;ratioP2;P2;SDS_P1;SDS_P2;PMS_P1;PMS_P2;Temp;Humidity;BMP_temperature;BMP_pressure;BME280_temperature;BME280_humidity;BME280_pressure;Samples;Min_cycle;Max_cycle;Signal;HPM_P1;HPM_P2
2024/01/03 00:00:42;;;;;;;9.80;1.05;;;;;;;8.54;100.00;98263.13;1048515;28;20929;-56
2024/01/03 00:01:53;;;;;;;14.65;2.25;;;;;;;8.55;100.00;98255.94;1049957;28;20748;-56
2024/01/03 00:03:03;;;;;;;7.10;1.73;;;;;;;8.63;100.00;98266.03;1038555;28;20292;-52
2024/01/03 00:04:10;;;;;;;13.73;1.63;;;;;;;8.53;100.00;98271.34;1039206;28;20327;-56
2024/01/03 00:04:58;;;;;;;17.42;4.07;;;;;;;8.50;100.00;98283.28;1047082;28;20298;-48
2024/01/03 00:06:16;;;;;;;17.13;2.20;;;;;;;8.56;100.00;98279.56;1045292;28;20349;-56
2024/01/03 00:07:10;;;;;;;10.75;2.40;;;;;;;8.58;100.00;98281.94;1050197;28;20299;-46
2024/01/03 00:07:58;;;;;;;12.05;2.53;;;;;;;8.57;100.00;98277.72;1042090;28;20299;-57
2024/01/03 00:09:02;;;;;;;13.18;2.33;;;;;;;8.51;100.00;98289.38;1044993;28;20303;-50
2024/01/03 00:10:59;;;;;;;;;;;;;;;;;;;;;
2024/01/03 00:11:55;;;;;;;12.65;1.75;;;;;;;8.45;100.00;98293.88;1053563;28;20325;-47
2024/01/03 00:12:44;;;;;;;7.93;2.10;;;;;;;8.41;100.00;98295.47;1050266;28;20553;-53
2024/01/03 00:14:14;;;;;;;11.55;2.40;;;;;;;8.43;100.00;98282.72;1042950;28;20315;-55
2024/01/03 00:15:40;;;;;;;13.63;2.42;;;;;;;8.48;100.00;98306.59;1041723;28;20354;-56
2024/01/03 00:16:33;;;;;;;13.32;1.67;;;;;;;8.38;100.00;98280.06;1042960;28;20307;-47
2024/01/03 00:17:33;;;;;;;7.80;2.05;;;;;;;8.44;100.00;98307.41;1048451;28;20796;-48
2024/01/03 00:19:03;;;;;;;16.58;2.40;;;;;;;8.40;100.00;98298.38;1048770;28;20299;-55
2024/01/03 00:20:07;;;;;;;9.75;2.42;;;;;;;8.32;100.00;98297.81;1026651;28;20047;-47
2024/01/03 00:21:23;;;;;;;13.05;1.42;;;;;;;8.40;100.00;98295.72;1027261;28;20052;-46
2024/01/03 00:22:12;;;;;;;13.80;2.22;;;;;;;8.36;100.00;98298.91;1025023;28;20306;-47
2024/01/03 00:23:08;;;;;;;32.63;6.35;;;;;;;8.31;100.00;98308.69;1024248;28;20058;-56
2024/01/03 00:24:49;;;;;;;12.35;2.15;;;;;;;8.49;100.00;98294.13;1038258;28;20310;-46
2024/01/03 00:26:12;;;;;;;7.60;1.42;;;;;;;8.51;100.00;98307.97;1046791;28;20307;-49
2024/01/03 00:27:33;;;;;;;10.88;1.88;;;;;;;8.42;100.00;98312.19;1046764;28;20315;-56
2024/01/03 00:28:32;;;;;;;9.25;1.80;;;;;;;8.36;100.00;98308.72;1047406;28;20812;-53
2024/01/03 00:29:40;;;;;;;12.38;1.55;;;;;;;8.32;100.00;98316.38;1037972;28;20371;-56
2024/01/03 00:30:25;;;;;;;8.35;2.05;;;;;;;8.40;100.00;98309.00;1044680;28;20307;-47
2024/01/03 00:31:44;;;;;;;6.47;1.48;;;;;;;8.43;100.00;98306.59;1042118;28;20316;-56
2024/01/03 00:32:36;;;;;;;22.73;2.17;;;;;;;8.46;100.00;98311.38;1036837;28;21077;-56
2024/01/03 00:33:53;;;;;;;11.90;2.80;;;;;;;8.42;100.00;98338.69;1041533;28;20052;-48
2024/01/03 00:34:43;;;;;;;14.77;2.75;;;;;;;8.40;100.00;98304.47;1040188;28;20296;-48
2024/01/03 00:35:30;;;;;;;8.70;1.67;;;;;;;8.40;100.00;98320.41;1041079;28;20296;-47
2024/01/03 00:36:29;;;;;;;13.52;3.15;;;;;;;8.36;100.00;98328.09;1032471;28;20381;-47
2024/01/03 00:37:46;;;;;;;14.30;2.17;;;;;;;8.38;100.00;98324.38;1033832;28;20441;-49
2024/01/03 00:39:01;;;;;;;7.30;1.60;;;;;;;8.51;100.00;98321.22;1038173;28;20527;-48
2024/01/03 00:40:04;;;;;;;9.85;2.65;;;;;;;8.43;100.00;98303.94;1035170;28;20336;-47
2024/01/03 00:41:29;;;;;;;12.68;2.30;;;;;;;8.29;100.00;98330.19;1034341;28;20811;-52
2024/01/03 00:42:17;;;;;;;14.60;3.17;;;;;;;8.32;100.00;98334.94;1029539;28;20312;-49
2024/01/03 00:43:20;;;;;;;13.27;3.22;;;;;;;8.29;100.00;98340.78;1028090;28;20317;-53
2024/01/03 00:44:15;;;;;;;13.20;1.98;;;;;;;8.22;100.00;98339.44;1028519;28;20313;-49
2024/01/03 00:45:20;;;;;;;9.30;2.22;;;;;;;8.21;100.00;98349.22;1031542;28;20312;-46
2024/01/03 00:46:33;;;;;;;12.07;1.95;;;;;;;8.17;100.00;98353.47;1032915;28;20309;-56
2024/01/03 00:48:26;;;;;;;16.15;2.45;;;;;;;8.17;100.00;98352.66;1032366;28;20778;-56
2024/01/03 00:49:24;;;;;;;14.60;2.17;;;;;;;8.09;100.00;98372.53;1045331;28;20134;-50
2024/01/03 00:50:28;;;;;;;14.55;2.35;;;;;;;8.04;100.00;98360.06;1040672;28;20393;-53
2024/01/03 00:51:15;;;;;;;14.55;2.33;;;;;;;8.03;100.00;98368.28;1029652;28;20317;-47
2024/01/03 00:52:06;;;;;;;14.65;3.30;;;;;;;8.00;100.00;98376.75;1040271;28;20319;-56
2024/01/03 00:52:52;;;;;;;16.70;3.33;;;;;;;7.93;100.00;98374.31;1037154;28;20305;-55
2024/01/03 00:55:14;;;;;;;22.10;2.90;;;;;;;8.00;100.00;98382.06;1033199;28;21243;-56
2024/01/03 00:56:33;;;;;;;12.15;3.55;;;;;;;8.00;100.00;98374.13;1044210;28;20311;-54
2024/01/03 00:57:48;;;;;;;12.18;2.20;;;;;;;7.95;100.00;98363.50;1046899;28;20506;-56
2024/01/03 00:58:52;;;;;;;16.00;2.55;;;;;;;7.96;100.00;98386.28;1039008;28;20320;-56
2024/01/03 00:59:49;;;;;;;16.20;3.08;;;;;;;7.93;100.00;98384.13;1030201;28;20305;-55
2024/01/03 01:00:42;;;;;;;15.60;2.55;;;;;;;7.92;100.00;98393.13;1036014;28;20519;-56
2024/01/03 01:01:37;;;;;;;14.15;2.63;;;;;;;7.95;100.00;98395.31;1046477;28;20307;-50
2024/01/03 01:02:21;;;;;;;20.80;2.40;;;;;;;7.96;100.00;98399.53;1040538;28;20301;-47
2024/01/03 01:03:29;;;;;;;20.67;4.78;;;;;;;7.88;100.00;98400.81;1041052;28;20376;-47
2024/01/03 01:04:55;;;;;;;12.93;2.78;;;;;;;7.87;100.00;98398.44;1037286;28;20320;-52
2024/01/03 01:05:49;;;;;;;20.63;3.20;;;;;;;7.89;100.00;98402.41;1044672;28;20718;-49
2024/01/03 01:07:05;;;;;;;20.35;3.22;;;;;;;7.91;100.00;98394.19;1046937;28;20377;-55
2024/01/03 01:08:07;;;;;;;17.75;2.10;;;;;;;7.90;100.00;98401.34;1043149;28;20919;-48
2024/01/03 01:08:59;;;;;;;13.88;2.03;;;;;;;7.90;100.00;98395.25;1048994;28;20307;-47
2024/01/03 01:10:17;;;;;;;;;;;;;;;;;;;;;
2024/01/03 01:11:02;;;;;;;16.67;2.65;;;;;;;7.83;100.00;98415.91;1043054;28;20048;-49
2024/01/03 01:12:02;;;;;;;18.65;2.35;;;;;;;7.88;100.00;98402.66;1034680;28;20046;-48
2024/01/03 01:13:31;;;;;;;16.30;2.58;;;;;;;7.81;100.00;98402.91;1037032;28;20312;-56
2024/01/03 01:14:13;;;;;;;11.77;2.35;;;;;;;7.83;100.00;98402.66;1039284;28;20293;-48
2024/01/03 01:15:27;;;;;;;13.75;2.15;;;;;;;7.82;100.00;98398.41;1038336;28;20305;-56
2024/01/03 01:16:21;;;;;;;11.43;2.03;;;;;;;7.85;100.00;98403.19;1038716;28;20300;-49
2024/01/03 01:18:42;;;;;;;12.45;1.85;;;;;;;7.90;100.00;98405.84;1045866;28;20394;-54
2024/01/03 01:19:32;;;;;;;12.20;1.33;;;;;;;7.85;100.00;98411.13;1046154;28;20307;-55
2024/01/03 01:20:34;;;;;;;14.00;2.63;;;;;;;7.82;100.00;98414.31;1042549;28;20312;-55
2024/01/03 01:21:26;;;;;;;16.35;2.63;;;;;;;7.80;100.00;98409.28;1040740;28;20407;-47
2024/01/03 01:22:30;;;;;;;9.15;1.35;;;;;;;7.85;100.00;98413.78;1036653;28;21583;-55
2024/01/03 01:23:26;;;;;;;19.45;2.47;;;;;;;7.81;100.00;98413.50;1042004;28;20319;-55
2024/01/03 01:24:32;;;;;;;12.57;2.03;;;;;;;7.82;100.00;98411.66;1039275;28;20292;-48
2024/01/03 01:25:36;;;;;;;10.77;2.30;;;;;;;7.81;100.00;98418.00;1038895;28;20305;-55
2024/01/03 01:26:18;;;;;;;19.60;1.77;;;;;;;7.82;100.00;98406.34;1036206;28;20400;-49
2024/01/03 01:27:09;;;;;;;18.75;3.35;;;;;;;7.81;100.00;98415.38;1045494;28;20864;-56
2024/01/03 01:27:40;;;;;;;9.55;2.00;;;;;;;7.82;100.00;98419.59;1047011;28;20646;-55
2024/01/03 01:28:12;;;;;;;10.23;2.63;;;;;;;7.84;100.00;98406.91;1046857;28;20302;-55
2024/01/03 01:28:44;;;;;;;15.18;3.13;;;;;;;7.82;100.00;98411.66;1050383;28;20825;-49
2024/01/03 01:29:15;;;;;;;22.48;2.17;;;;;;;7.85;100.00;98413.78;1051671;28;20309;-49
2024/01/03 01:29:47;;;;;;;6.38;2.00;;;;;;;7.83;100.00;98397.34;1051504;28;20308;-50
2024/01/03 01:30:19;;;;;;;21.38;2.42;;;;;;;7.86;100.00;98410.88;1051591;28;20289;-47
2024/01/03 01:30:51;;;;;;;17.00;2.42;;;;;;;7.83;100.00;98422.00;1051778;28;20323;-50
2024/01/03 01:31:23;;;;;;;15.30;4.03;;;;;;;7.83;100.00;98406.09;1051652;28;20298;-50
2024/01/03 01:31:54;;;;;;;7.97;1.98;;;;;;;7.84;100.00;98420.16;1052000;28;20325;-49
2024/01/03 01:32:26;;;;;;;18.73;2.92;;;;;;;7.88;100.00;98418.56;1051913;28;20293;-50
2024/01/03 01:32:58;;;;;;;24.83;4.68;;;;;;;8.02;100.00;98411.75;1051076;28;20301;-49
2024/01/03 01:33:29;;;;;;;17.10;3.47;;;;;;;7.96;100.00;98410.94;1051702;28;20389;-48
2024/01/03 01:34:01;;;;;;;14.18;3.38;;;;;;;7.94;100.00;98417.53;1051623;28;20305;-56
2024/01/03 01:34:33;;;;;;;17.40;3.70;;;;;;;7.95;100.00;98425.25;1051627;28;20326;-56
2024/01/03 01:35:05;;;;;;;19.95;3.13;;;;;;;7.91;100.00;98399.50;1050920;28;20709;-55
2024/01/03 01:35:37;;;;;;;14.73;3.92;;;;;;;8.00;100.00;98412.03;1051744;28;20758;-56
2024/01/03 01:36:08;;;;;;;20.73;4.45;;;;;;;7.99;100.00;98420.22;1051661;28;20305;-56
2024/01/03 01:36:40;;;;;;;15.30;2.55;;;;;;;7.97;100.00;98415.19;1051686;28;20301;-56
2024/01/03 01:37:12;;;;;;;26.63;4.30;;;;;;;7.93;100.00;98415.94;1051843;28;20456;-56
2024/01/03 01:37:44;;;;;;;15.15;3.13;;;;;;;8.01;100.00;98407.50;1051739;28;20306;-56
2024/01/03 01:38:15;;;;;;;14.48;3.05;;;;;;;8.03;100.00;98413.34;1051372;28;20297;-56
2024/01/03 01:38:47;;;;;;;15.00;2.85;;;;;;;8.05;100.00;98398.78;1051643;28;20302;-57
2024/01/03 01:39:19;;;;;;;20.33;3.63;;;;;;;8.09;100.00;98404.34;1051578;28;20309;-56
2024/01/03 01:39:51;;;;;;;10.73;3.17;;;;;;;8.16;100.00;98415.50;1051476;28;20302;-57
2024/01/03 01:40:22;;;;;;;14.45;2.60;;;;;;;8.06;100.00;98413.63;1051172;28;20297;-56
2024/01/03 01:40:54;;;;;;;21.27;3.78;;;;;;;8.05;100.00;98413.88;1051549;28;20893;-57
2024/01/03 01:41:25;;;;;;;15.55;2.55;;;;;;;8.03;100.00;98406.19;1051720;28;20302;-57
2024/01/03 01:41:57;;;;;;;21.02;4.07;;;;;;;8.08;100.00;98413.38;1051709;28;20285;-55
2024/01/03 01:42:30;;;;;;;16.00;2.30;;;;;;;8.10;100.00;98405.94;1049669;28;20298;-56
2024/01/03 01:43:02;;;;;;;10.60;3.33;;;;;;;8.26;100.00;98398.84;1051871;28;20423;-57
2024/01/03 01:43:34;;;;;;;24.52;3.25;;;;;;;8.21;100.00;98391.66;1051404;28;20356;-56
2024/01/03 01:44:05;;;;;;;14.80;2.50;;;;;;;8.22;100.00;98403.09;1051482;28;20354;-56
2024/01/03 01:44:37;;;;;;;17.25;3.70;;;;;;;8.21;100.00;98404.13;1051061;28;20795;-57
2024/01/03 01:45:09;;;;;;;13.05;4.40;;;;;;;8.17;100.00;98417.09;1047013;28;20810;-57
2024/01/03 01:45:41;;;;;;;23.15;3.10;;;;;;;8.17;100.00;98400.41;1046873;28;20306;-54
2024/01/03 01:46:13;;;;;;;24.85;5.00;;;;;;;8.18;100.00;98424.00;1047573;28;20764;-57
2024/01/03 01:46:45;;;;;;;15.75;2.92;;;;;;;8.15;100.00;98403.31;1051181;28;20813;-57
2024/01/03 01:47:18;;;;;;;15.75;2.72;;;;;;;8.29;100.00;98412.38;1051366;28;20298;-57
2024/01/03 01:47:50;;;;;;;20.60;5.97;;;;;;;8.30;100.00;98400.72;1051339;28;20309;-57
2024/01/03 01:48:23;;;;;;;14.95;2.67;;;;;;;8.26;100.00;98418.22;1051911;28;20771;-56
2024/01/03 01:48:55;;;;;;;18.40;3.03;;;;;;;8.29;100.00;98428.31;1051313;28;20364;-56
2024/01/03 01:49:27;;;;;;;11.93;3.20;;;;;;;8.25;100.00;98419.28;1049397;28;20803;-50
2024/01/03 01:50:00;;;;;;;13.90;2.88;;;;;;;8.29;100.00;98398.34;1051214;28;20728;-48
2024/01/03 01:50:31;;;;;;;20.08;3.83;;;;;;;8.29;100.00;98408.94;1051263;28;20298;-49
2024/01/03 01:51:03;;;;;;;14.40;3.92;;;;;;;8.28;100.00;98405.50;1051398;28;20438;-49
2024/01/03 01:51:36;;;;;;;16.75;4.10;;;;;;;8.44;100.00;98410.84;1051525;28;20656;-47
2024/01/03 01:52:08;;;;;;;23.60;3.20;;;;;;;8.48;100.00;98396.81;1051543;28;20392;-49
2024/01/03 01:52:41;;;;;;;17.23;2.55;;;;;;;8.48;100.00;98396.00;1051293;28;20321;-48
2024/01/03 01:53:13;;;;;;;13.50;3.15;;;;;;;8.55;100.00;98413.28;1051547;28;20704;-50
2024/01/03 01:53:45;;;;;;;20.15;3.47;;;;;;;8.48;100.00;98411.91;1051522;28;20294;-48
2024/01/03 01:54:17;;;;;;;18.80;3.08;;;;;;;8.53;100.00;98414.63;1051330;28;20306;-50
2024/01/03 01:54:49;;;;;;;13.50;2.80;;;;;;;8.49;100.00;98377.19;1047018;28;20313;-56
2024/01/03 01:55:21;;;;;;;21.10;3.58;;;;;;;8.44;100.00;98416.97;1042935;28;20394;-56
2024/01/03 01:55:53;;;;;;;14.23;3.20;;;;;;;8.44;100.00;98430.22;1043246;28;20317;-56
2024/01/03 01:56:24;;;;;;;18.95;4.57;;;;;;;8.54;100.00;98410.91;1043924;28;20283;-56
2024/01/03 01:56:56;;;;;;;22.48;4.20;;;;;;;8.58;100.00;98407.44;1051145;28;20298;-57
2024/01/03 01:57:29;;;;;;;14.52;3.17;;;;;;;8.51;100.00;98432.66;1051342;28;20293;-48
2024/01/03 01:58:01;;;;;;;22.58;4.63;;;;;;;8.45;100.00;98417.75;1050997;28;20404;-48
2024/01/03 01:58:33;;;;;;;22.48;3.53;;;;;;;8.43;100.00;98417.22;1047069;28;20384;-48
2024/01/03 01:59:06;;;;;;;18.10;3.20;;;;;;;8.42;100.00;98432.34;1042822;28;20299;-47
2024/01/03 01:59:38;;;;;;;18.33;4.60;;;;;;;8.47;100.00;98426.25;1042647;28;20732;-56
2024/01/03 02:00:10;;;;;;;12.43;2.58;;;;;;;8.48;100.00;98396.00;1043324;28;20310;-56
2024/01/03 02:00:45;;;;;;;19.25;3.35;;;;;;;8.48;100.00;98430.50;1048173;28;20464;-56
2024/01/03 02:01:18;;;;;;;17.08;3.40;;;;;;;8.56;100.00;98425.50;1047822;28;20303;-56
2024/01/03 02:01:50;;;;;;;18.30;3.30;;;;;;;8.56;100.00;98427.34;1050919;28;20302;-56
2024/01/03 02:02:23;;;;;;;17.65;3.85;;;;;;;8.52;100.00;98413.81;1051097;28;20587;-49
2024/01/03 02:02:55;;;;;;;14.77;3.45;;;;;;;8.48;100.00;98427.84;1051261;28;20290;-48
2024/01/03 02:03:26;;;;;;;20.70;3.85;;;;;;;8.46;100.00;98429.97;1051441;28;20648;-47
2024/01/03 02:03:58;;;;;;;26.08;6.35;;;;;;;8.54;100.00;98426.81;1051738;28;20309;-48
2024/01/03 02:04:33;;;;;;;21.13;5.28;;;;;;;8.56;100.00;98424.69;1051846;28;20388;-46
2024/01/03 02:05:05;;;;;;;18.95;3.63;;;;;;;8.50;100.00;98426.53;1051223;28;20289;-49
2024/01/03 02:05:37;;;;;;;16.98;3.03;;;;;;;8.46;100.00;98435.25;1051380;28;20302;-49
2024/01/03 02:06:10;;;;;;;18.75;3.30;;;;;;;8.46;100.00;98438.72;1051415;28;20298;-50
2024/01/03 02:06:42;;;;;;;23.90;4.05;;;;;;;8.44;100.00;98437.38;1051077;28;20290;-50
2024/01/03 02:07:14;;;;;;;16.17;3.85;;;;;;;8.43;100.00;98430.47;1050789;28;20306;-46
2024/01/03 02:07:46;;;;;;;17.42;3.83;;;;;;;8.37;100.00;98437.63;1051086;28;20301;-47
2024/01/03 02:08:18;;;;;;;18.80;3.40;;;;;;;8.34;100.00;98433.66;1051154;28;20328;-45
2024/01/03 02:08:50;;;;;;;12.25;2.80;;;;;;;8.45;100.00;98396.53;1051127;28;20376;-49
2024/01/03 02:09:21;;;;;;;18.00;4.50;;;;;;;8.44;100.00;98421.47;1050849;28;20313;-46
2024/01/03 02:09:53;;;;;;;16.90;3.80;;;;;;;8.36;100.00;98436.84;1051486;28;20364;-47
2024/01/03 02:10:25;;;;;;;18.95;4.43;;;;;;;8.34;100.00;98438.97;1051595;28;20373;-47
2024/01/03 02:10:56;;;;;;;19.30;3.33;;;;;;;8.36;100.00;98417.47;1051630;28;20308;-47
2024/01/03 02:11:28;;;;;;;23.45;4.93;;;;;;;8.38;100.00;98438.44;1051869;28;20349;-47
2024/01/03 02:12:00;;;;;;;25.75;3.45;;;;;;;8.43;100.00;98435.78;1051129;28;20668;-50
2024/01/03 02:12:33;;;;;;;14.55;3.53;;;;;;;8.45;100.00;98441.63;1051244;28;20355;-46
2024/01/03 02:13:05;;;;;;;15.93;3.33;;;;;;;8.36;100.00;98425.44;1051034;28;20304;-47
2024/01/03 02:13:36;;;;;;;13.88;3.28;;;;;;;8.39;100.00;98434.72;1051305;28;20329;-48
2024/01/03 02:14:09;;;;;;;16.05;3.33;;;;;;;8.35;100.00;98429.94;1051130;28;20306;-46
2024/01/03 02:14:41;;;;;;;19.63;3.90;;;;;;;8.30;100.00;98434.41;1051524;28;20339;-47
2024/01/03 02:15:12;;;;;;;16.67;3.50;;;;;;;8.35;100.00;98435.25;1051537;28;20333;-45
2024/01/03 02:15:44;;;;;;;16.83;3.63;;;;;;;8.34;100.00;98428.34;1051561;28;20908;-48
2024/01/03 02:16:16;;;;;;;23.63;4.10;;;;;;;8.37;100.00;98437.63;1050904;28;20306;-49
2024/01/03 02:16:47;;;;;;;14.43;3.85;;;;;;;8.41;100.00;98443.22;1047139;28;20719;-50
2024/01/03 02:17:20;;;;;;;17.52;2.90;;;;;;;8.54;100.00;98432.13;1047226;28;20283;-45
2024/01/03 02:17:52;;;;;;;20.45;4.70;;;;;;;8.50;100.00;98425.75;1047678;28;20756;-48
2024/01/03 02:18:25;;;;;;;19.25;4.57;;;;;;;8.56;100.00;98430.81;1050900;28;20655;-47
2024/01/03 02:18:57;;;;;;;23.02;3.90;;;;;;;8.53;100.00;98425.22;1051473;28;20316;-47
2024/01/03 02:19:28;;;;;;;18.77;3.38;;;;;;;8.51;100.00;98430.00;1051483;28;20298;-46
2024/01/03 02:20:00;;;;;;;20.63;3.90;;;;;;;8.46;100.00;98427.31;1051282;28;20417;-44
2024/01/03 02:20:35;;;;;;;15.43;4.30;;;;;;;8.49;100.00;98435.56;1050505;28;20388;-47
2024/01/03 02:21:15;;;;;;;15.43;3.97;;;;;;;8.59;100.00;98434.78;1051219;28;20744;-46
2024/01/03 02:21:47;;;;;;;17.10;3.78;;;;;;;8.57;100.00;98420.97;1051038;28;20305;-47
2024/01/03 02:22:19;;;;;;;21.63;3.28;;;;;;;8.55;100.00;98420.44;1051295;28;20867;-46
2024/01/03 02:22:51;;;;;;;19.67;3.67;;;;;;;8.59;100.00;98418.88;1048872;28;20309;-47
2024/01/03 02:23:23;;;;;;;14.57;3.30;;;;;;;8.59;100.00;98408.25;1051147;28;20306;-48
2024/01/03 02:23:57;;;;;;;16.90;3.58;;;;;;;8.56;100.00;98414.88;1046737;28;20295;-48
2024/01/03 02:24:28;;;;;;;18.90;3.20;;;;;;;8.56;100.00;98424.69;1047233;28;20398;-48
2024/01/03 02:25:00;;;;;;;16.83;3.53;;;;;;;8.65;100.00;98412.50;1050972;28;20364;-47
2024/01/03 02:25:32;;;;;;;13.77;4.63;;;;;;;8.62;100.00;98429.75;1051079;28;20306;-48
2024/01/03 02:26:03;;;;;;;11.55;3.45;;;;;;;8.61;100.00;98412.22;1050723;28;20963;-48
2024/01/03 02:26:48;;;;;;;12.77;2.65;;;;;;;8.78;100.00;98406.69;1051264;28;20758;-47
2024/01/03 02:27:20;;;;;;;18.52;4.30;;;;;;;8.73;100.00;98419.94;1050611;28;20400;-46
2024/01/03 02:27:51;;;;;;;19.55;3.42;;;;;;;8.65;100.00;98423.13;1051313;28;20798;-48
2024/01/03 02:28:24;;;;;;;22.10;3.80;;;;;;;8.64;100.00;98432.94;1051314;28;20302;-46
2024/01/03 02:28:56;;;;;;;19.58;5.43;;;;;;;8.70;100.00;98428.44;1051207;28;20859;-46
2024/01/03 02:29:27;;;;;;;19.33;3.03;;;;;;;8.69;100.00;98418.88;1050943;28;20304;-47
2024/01/03 02:29:59;;;;;;;16.00;4.65;;;;;;;8.71;100.00;98437.97;1051076;28;20343;-50
2024/01/03 02:30:31;;;;;;;14.70;4.13;;;;;;;8.67;100.00;98439.56;1050743;28;20520;-46
2024/01/03 02:31:03;;;;;;;20.67;3.63;;;;;;;8.61;100.00;98416.75;1051192;28;20309;-47
2024/01/03 02:31:34;;;;;;;23.23;5.95;;;;;;;8.70;100.00;98435.59;1051478;28;20298;-50
2024/01/03 02:32:06;;;;;;;16.50;3.63;;;;;;;8.72;100.00;98446.75;1051709;28;20341;-48
2024/01/03 02:32:38;;;;;;;16.65;4.18;;;;;;;8.73;100.00;98427.91;1050657;28;20666;-48
2024/01/03 02:33:09;;;;;;;14.00;4.38;;;;;;;8.74;100.00;98426.03;1051058;28;20420;-46
2024/01/03 02:33:42;;;;;;;20.13;3.33;;;;;;;8.73;100.00;98435.06;1051041;28;20442;-46
2024/01/03 02:34:13;;;;;;;13.95;3.75;;;;;;;8.76;100.00;98459.22;1050826;28;20312;-46
2024/01/03 02:34:45;;;;;;;22.45;4.47;;;;;;;8.78;100.00;98438.53;1051375;28;20442;-45
2024/01/03 02:35:17;;;;;;;20.88;4.57;;;;;;;8.71;100.00;98443.28;1051213;28;20830;-49
2024/01/03 02:35:49;;;;;;;18.67;3.15;;;;;;;8.67;100.00;98436.91;1050486;28;20301;-58
2024/01/03 02:36:21;;;;;;;14.70;4.80;;;;;;;8.71;100.00;98453.09;1051108;28;20323;-56
2024/01/03 02:36:52;;;;;;;16.75;3.25;;;;;;;8.67;100.00;98466.91;1051475;28;20584;-56
2024/01/03 02:37:24;;;;;;;27.52;5.07;;;;;;;8.71;100.00;98453.09;1051073;28;20389;-55
2024/01/03 02:37:56;;;;;;;13.88;3.42;;;;;;;8.74;100.00;98441.97;1046547;28;20381;-56
2024/01/03 02:38:28;;;;;;;29.00;5.43;;;;;;;8.76;100.00;98437.19;1046629;28;20310;-48
2024/01/03 02:38:59;;;;;;;10.68;2.88;;;;;;;8.73;100.00;98456.28;1047429;28;20296;-46
2024/01/03 02:39:31;;;;;;;14.38;3.75;;;;;;;8.70;100.00;98452.31;1050698;28;20305;-45
2024/01/03 02:40:04;;;;;;;19.08;4.65;;;;;;;8.69;100.00;98450.72;1051451;28;20298;-45
2024/01/03 02:40:35;;;;;;;21.17;4.70;;;;;;;8.68;100.00;98457.09;1051449;28;21026;-45
2024/01/03 02:41:07;;;;;;;15.52;3.67;;;;;;;8.59;100.00;98472.72;1051131;28;20310;-47
2024/01/03 02:41:39;;;;;;;16.80;3.78;;;;;;;8.66;100.00;98420.19;1051230;28;20294;-47
2024/01/03 02:42:10;;;;;;;16.80;4.03;;;;;;;8.71;100.00;98463.72;1051740;28;20325;-48
2024/01/03 02:42:42;;;;;;;21.90;3.58;;;;;;;8.75;100.00;98444.34;1049580;28;20320;-50
2024/01/03 02:43:13;;;;;;;26.10;3.70;;;;;;;8.87;100.00;98458.19;1051204;28;20388;-56
2024/01/03 02:43:45;;;;;;;19.48;3.50;;;;;;;8.83;100.00;98433.25;1050909;28;20297;-55
2024/01/03 02:44:17;;;;;;;21.33;4.55;;;;;;;8.87;100.00;98444.91;1051021;28;20836;-56
2024/01/03 02:44:48;;;;;;;13.73;3.45;;;;;;;8.81;100.00;98445.19;1050565;28;20301;-55
2024/01/03 02:45:20;;;;;;;20.08;4.18;;;;;;;8.80;100.00;98449.69;1050974;28;20898;-56
2024/01/03 02:45:52;;;;;;;19.30;5.22;;;;;;;8.82;100.00;98455.53;1051058;28;20310;-56
2024/01/03 02:46:23;;;;;;;23.05;3.60;;;;;;;8.79;100.00;98450.75;1050707;28;20804;-55
2024/01/03 02:46:55;;;;;;;22.05;3.83;;;;;;;8.74;100.00;98432.16;1051133;28;20439;-56
2024/01/03 02:47:27;;;;;;;14.00;3.00;;;;;;;8.75;100.00;98454.97;1051844;28;20305;-56
2024/01/03 02:48:00;;;;;;;22.15;3.95;;;;;;;8.78;100.00;98446.50;1051207;28;21548;-54
2024/01/03 02:48:32;;;;;;;15.25;4.65;;;;;;;8.74;100.00;98452.56;1051582;28;20696;-55
2024/01/03 02:49:03;;;;;;;22.90;4.43;;;;;;;8.75;100.00;98460.28;1051326;28;20795;-56
2024/01/03 02:49:35;;;;;;;15.60;3.22;;;;;;;8.66;100.00;98459.22;1051275;28;20302;-55
2024/01/03 02:50:07;;;;;;;20.00;4.32;;;;;;;8.62;100.00;98450.19;1051316;28;20319;-56
2024/01/03 02:50:43;;;;;;;22.38;3.42;;;;;;;8.80;100.00;98436.44;1050731;28;20799;-56
2024/01/03 02:51:20;;;;;;;24.00;3.67;;;;;;;8.78;100.00;98443.84;1051305;28;20298;-56
2024/01/03 02:51:51;;;;;;;21.38;4.55;;;;;;;8.69;100.00;98450.72;1051178;28;20310;-56
2024/01/03 02:52:24;;;;;;;19.38;3.03;;;;;;;8.66;100.00;98456.56;1051234;28;20310;-56
2024/01/03 02:52:56;;;;;;;18.10;4.60;;;;;;;8.66;100.00;98454.69;1051089;28;20774;-55
2024/01/03 02:53:27;;;;;;;14.55;2.58;;;;;;;8.73;100.00;98457.09;1051369;28;20382;-56
2024/01/03 02:53:59;;;;;;;14.82;2.63;;;;;;;8.71;100.00;98459.22;1051296;28;20859;-55
2024/01/03 02:54:31;;;;;;;17.05;3.78;;;;;;;8.70;100.00;98457.63;1051431;28;20325;-56
2024/01/03 02:55:02;;;;;;;13.13;3.10;;;;;;;8.66;100.00;98461.84;1050996;28;20655;-55
2024/01/03 02:55:34;;;;;;;22.00;4.70;;;;;;;8.74;100.00;98463.19;1051654;28;20325;-56
2024/01/03 02:56:06;;;;;;;15.10;2.85;;;;;;;8.76;100.00;98472.50;1051618;28;20302;-55
2024/01/03 02:56:41;;;;;;;12.05;2.78;;;;;;;8.73;100.00;98467.72;1051362;28;20332;-55
2024/01/03 02:57:12;;;;;;;14.45;3.22;;;;;;;8.71;100.00;98469.03;1051612;28;20294;-55
2024/01/03 02:57:44;;;;;;;20.88;3.00;;;;;;;8.65;100.00;98468.22;1051519;28;20776;-55
2024/01/03 02:58:15;;;;;;;14.45;2.47;;;;;;;8.62;100.00;98476.72;1051265;28;20301;-55
2024/01/03 02:58:47;;;;;;;15.43;3.28;;;;;;;8.68;100.00;98470.34;1050798;28;20299;-55
2024/01/03 02:59:19;;;;;;;14.23;3.35;;;;;;;8.62;100.00;98466.91;1050983;28;20410;-55
2024/01/03 02:59:50;;;;;;;11.10;2.85;;;;;;;8.66;100.00;98477.78;1051054;28;20506;-55
2024/01/03 03:00:22;;;;;;;16.60;3.95;;;;;;;8.66;100.00;98436.13;1050423;28;20294;-55
2024/01/03 03:00:54;;;;;;;19.52;3.47;;;;;;;8.78;100.00;98470.41;1051231;28;21274;-55
2024/01/03 03:01:25;;;;;;;18.80;3.70;;;;;;;8.82;100.00;98482.09;1051357;28;20677;-54
2024/01/03 03:01:57;;;;;;;14.88;5.50;;;;;;;8.73;100.00;98451.00;1051636;28;20289;-55
2024/01/03 03:02:28;;;;;;;18.13;3.97;;;;;;;8.81;100.00;98453.94;1049314;28;20773;-55
2024/01/03 03:03:00;;;;;;;21.08;4.45;;;;;;;8.83;100.00;98456.34;1050970;28;20367;-55
2024/01/03 03:03:32;;;;;;;18.98;3.30;;;;;;;8.80;100.00;98472.78;1051289;28;20298;-55
2024/01/03 03:04:04;;;;;;;27.33;4.75;;;;;;;8.72;100.00;98466.13;1051141;28;20339;-55
2024/01/03 03:04:35;;;;;;;17.13;2.95;;;;;;;8.66;100.00;98477.78;1051214;28;20795;-54
2024/01/03 03:05:07;;;;;;;16.08;2.58;;;;;;;8.70;100.00;98476.19;1051302;28;20812;-55
2024/01/03 03:05:39;;;;;;;18.88;3.95;;;;;;;8.73;100.00;98467.72;1051333;28;20718;-55
2024/01/03 03:06:11;;;;;;;15.85;2.95;;;;;;;8.69;100.00;98461.34;1051004;28;20383;-55
2024/01/03 03:06:43;;;;;;;9.88;2.33;;;;;;;8.73;100.00;98478.31;1051310;28;20427;-55
2024/01/03 03:07:14;;;;;;;13.75;3.00;;;;;;;8.71;100.00;98477.78;1051594;28;20848;-55
2024/01/03 03:07:46;;;;;;;14.00;3.70;;;;;;;8.81;100.00;98472.53;1051181;28;20354;-55
2024/01/03 03:08:17;;;;;;;14.55;3.95;;;;;;;8.73;100.00;98472.22;1051270;28;20350;-55
2024/01/03 03:08:49;;;;;;;18.65;3.65;;;;;;;8.78;100.00;98475.72;1051274;28;20310;-55
2024/01/03 03:09:33;;;;;;;19.70;4.32;;;;;;;8.69;100.00;98482.56;1051163;28;20298;-55
2024/01/03 03:10:07;;;;;;;21.23;5.13;;;;;;;8.67;100.00;98490.00;1051063;28;20294;-55
2024/01/03 03:10:39;;;;;;;16.73;3.60;;;;;;;8.77;100.00;98490.03;1051321;28;20403;-55
2024/01/03 03:11:11;;;;;;;13.88;3.13;;;;;;;8.72;100.00;98474.06;1050428;28;20298;-54
2024/01/03 03:11:42;;;;;;;21.73;3.80;;;;;;;8.69;100.00;98485.22;1051686;28;20296;-55
2024/01/03 03:12:14;;;;;;;13.10;2.40;;;;;;;8.67;100.00;98490.78;1051140;28;20343;-55
2024/01/03 03:12:46;;;;;;;23.63;3.20;;;;;;;8.82;100.00;98491.91;1051142;28;20393;-54
2024/01/03 03:13:17;;;;;;;17.33;3.60;;;;;;;8.78;100.00;98488.97;1051394;28;20358;-55
2024/01/03 03:13:49;;;;;;;25.98;3.65;;;;;;;8.72;100.00;98491.84;1051348;28;20313;-56
2024/01/03 03:14:21;;;;;;;12.18;2.83;;;;;;;8.76;100.00;98488.41;1051051;28;20302;-55
2024/01/03 03:14:53;;;;;;;16.13;3.08;;;;;;;8.80;100.00;98496.69;1050988;28;20400;-55
2024/01/03 03:15:25;;;;;;;10.48;2.63;;;;;;;8.77;100.00;98462.69;1051313;28;20600;-55